Time;durP1;ratioP1;P1;durP2;ratioP2;P2;SDS_P1;SDS_P2;PMS_P1;PMS_P2;Temp;Humidity;BMP_temperature;BMP_pressure;BME280_temperature;BME280_humidity;BME280_pressure;Samples;Min_cycle;Max_cycle;Signal;HPM_P1;HPM_P2
2021/01/18 00:01:24;;;;;;;39.67;30.42;;;;;;;;;;4991338;28;20407;-81
2021/01/18 00:03:50;;;;;;;37.25;31.15;;;;;;;;;;4991499;28;21002;-82
2021/01/18 00:06:17;;;;;;;39.75;31.65;;;;;;;;;;4992837;28;20901;-82
2021/01/18 00:08:44;;;;;;;41.63;32.80;;;;;;;;;;4992783;28;20391;-81
2021/01/18 00:11:10;;;;;;;38.60;30.50;;;;;;;;;;4992499;28;20456;-81
2021/01/18 00:13:37;;;;;;;35.70;28.05;;;;;;;;;;4991247;28;20365;-81
2021/01/18 00:16:03;;;;;;;37.47;28.73;;;;;;;;;;4992359;28;20860;-81
2021/01/18 00:18:30;;;;;;;35.55;28.35;;;;;;;;;;4992729;28;20437;-81
2021/01/18 00:20:56;;;;;;;34.78;27.33;;;;;;;;;;4990865;28;20405;-81
2021/01/18 00:23:22;;;;;;;36.63;28.73;;;;;;;;;;4991106;28;20876;-81
2021/01/18 00:25:48;;;;;;;38.53;28.70;;;;;;;;;;4991163;28;20427;-81
2021/01/18 00:28:14;;;;;;;35.30;27.60;;;;;;;;;;4990957;28;20460;-81
2021/01/18 00:30:40;;;;;;;34.13;27.70;;;;;;;;;;4990740;28;20373;-81
2021/01/18 00:33:06;;;;;;;34.80;28.05;;;;;;;;;;4991017;28;21167;-81
2021/01/18 00:35:32;;;;;;;33.58;27.20;;;;;;;;;;4991101;28;20380;-81
2021/01/18 00:37:58;;;;;;;33.33;26.03;;;;;;;;;;4990724;28;20860;-81
2021/01/18 00:40:25;;;;;;;33.70;26.13;;;;;;;;;;4990308;28;20444;-81
2021/01/18 00:42:51;;;;;;;36.72;28.10;;;;;;;;;;4991960;28;20365;-81
2021/01/18 00:45:18;;;;;;;35.33;26.52;;;;;;;;;;4990917;28;20882;-81
2021/01/18 00:47:45;;;;;;;32.25;26.33;;;;;;;;;;4991961;28;20374;-81
2021/01/18 00:50:12;;;;;;;32.10;26.42;;;;;;;;;;4990454;28;20381;-81
2021/01/18 00:52:42;;;;;;;33.15;26.38;;;;;;;;;;4992002;28;20900;-81
2021/01/18 00:55:10;;;;;;;34.85;26.92;;;;;;;;;;4991929;28;20400;-81
2021/01/18 00:57:36;;;;;;;34.92;26.90;;;;;;;;;;4990776;28;20373;-81
2021/01/18 01:00:05;;;;;;;33.13;27.08;;;;;;;;;;4990619;28;20415;-81
2021/01/18 01:02:31;;;;;;;35.20;26.88;;;;;;;;;;4992012;28;20381;-81
2021/01/18 01:04:57;;;;;;;33.28;26.05;;;;;;;;;;4990693;28;20365;-81
2021/01/18 01:07:23;;;;;;;34.97;26.53;;;;;;;;;;4990468;28;20555;-81
2021/01/18 01:09:49;;;;;;;36.78;28.30;;;;;;;;;;4991380;28;20732;-81
2021/01/18 01:12:15;;;;;;;34.95;27.08;;;;;;;;;;4990361;28;20380;-82
2021/01/18 01:14:41;;;;;;;33.92;26.23;;;;;;;;;;4990287;28;20748;-81
2021/01/18 01:17:11;;;;;;;34.38;26.23;;;;;;;;;;4991651;28;20361;-81
2021/01/18 01:19:37;;;;;;;32.95;26.90;;;;;;;;;;4991521;28;20400;-81
2021/01/18 01:22:03;;;;;;;33.17;26.40;;;;;;;;;;4991436;28;20365;-81
2021/01/18 01:24:29;;;;;;;33.35;25.08;;;;;;;;;;4990568;28;20369;-81
2021/01/18 01:26:55;;;;;;;31.92;24.25;;;;;;;;;;4990450;28;20399;-81
2021/01/18 01:29:21;;;;;;;32.17;25.17;;;;;;;;;;4990555;28;20384;-82
2021/01/18 01:31:47;;;;;;;34.65;26.23;;;;;;;;;;4993189;28;20373;-81
2021/01/18 01:34:13;;;;;;;31.73;25.52;;;;;;;;;;4996696;28;20384;-81
2021/01/18 01:36:43;;;;;;;34.00;26.17;;;;;;;;;;4991997;28;20464;-81
2021/01/18 01:39:09;;;;;;;31.67;24.40;;;;;;;;;;4991220;28;20369;-82
2021/01/18 01:41:35;;;;;;;32.63;25.63;;;;;;;;;;4991438;28;20381;-81
2021/01/18 01:44:01;;;;;;;30.85;24.08;;;;;;;;;;4990327;28;20418;-81
2021/01/18 01:46:27;;;;;;;33.45;25.02;;;;;;;;;;4991502;28;20372;-80
2021/01/18 01:48:53;;;;;;;32.40;25.03;;;;;;;;;;4989995;28;20455;-81
2021/01/18 01:51:20;;;;;;;34.03;25.42;;;;;;;;;;4991297;28;20380;-82
2021/01/18 01:53:46;;;;;;;33.28;26.55;;;;;;;;;;4991037;28;20361;-80
2021/01/18 01:56:12;;;;;;;30.73;24.58;;;;;;;;;;4990070;28;20772;-81
2021/01/18 01:58:38;;;;;;;29.58;23.98;;;;;;;;;;4991406;28;20361;-81
2021/01/18 02:01:04;;;;;;;33.30;25.50;;;;;;;;;;4990900;28;20418;-82
2021/01/18 02:03:47;;;;;;;33.70;25.63;;;;;;;;;;4991529;28;20787;-82
2021/01/18 02:06:13;;;;;;;32.97;25.03;;;;;;;;;;4994875;28;20419;-81
2021/01/18 02:08:39;;;;;;;36.15;26.55;;;;;;;;;;4993842;28;20439;-82
2021/01/18 02:11:06;;;;;;;31.97;24.43;;;;;;;;;;4994747;28;20413;-81
2021/01/18 02:13:41;;;;;;;31.27;24.83;;;;;;;;;;4994900;28;20883;-81
2021/01/18 02:16:07;;;;;;;32.42;24.88;;;;;;;;;;4994973;28;20405;-81
2021/01/18 02:18:42;;;;;;;32.50;24.95;;;;;;;;;;4994683;28;20405;-82
2021/01/18 02:21:37;;;;;;;32.33;24.95;;;;;;;;;;4994410;28;20404;-82
2021/01/18 02:24:18;;;;;;;30.65;23.60;;;;;;;;;;4993279;28;20392;-82
2021/01/18 02:27:03;;;;;;;31.60;25.53;;;;;;;;;;4994701;28;20532;-81
2021/01/18 02:29:29;;;;;;;35.05;26.17;;;;;;;;;;4994556;28;20419;-83
2021/01/18 02:32:13;;;;;;;34.75;25.27;;;;;;;;;;4994507;28;20373;-81
2021/01/18 02:34:39;;;;;;;31.20;24.80;;;;;;;;;;4994726;28;20449;-82
2021/01/18 02:37:17;;;;;;;32.38;25.75;;;;;;;;;;4994834;28;20372;-81
2021/01/18 02:40:02;;;;;;;32.87;25.20;;;;;;;;;;4994084;28;20494;-82
2021/01/18 02:42:31;;;;;;;34.00;26.15;;;;;;;;;;4993027;28;20380;-82
2021/01/18 02:44:58;;;;;;;34.28;26.30;;;;;;;;;;4992967;28;20396;-82
2021/01/18 02:47:26;;;;;;;33.90;25.88;;;;;;;;;;4994632;28;20369;-82
2021/01/18 02:49:52;;;;;;;31.17;24.50;;;;;;;;;;4993891;28;20369;-82
2021/01/18 02:52:19;;;;;;;31.00;24.90;;;;;;;;;;4994230;28;20364;-81
2021/01/18 02:54:45;;;;;;;33.88;25.75;;;;;;;;;;4993172;28;20864;-82
2021/01/18 02:57:15;;;;;;;32.05;25.67;;;;;;;;;;4993139;28;20724;-81
2021/01/18 02:59:44;;;;;;;33.42;27.27;;;;;;;;;;4993582;28;20435;-82
2021/01/18 03:02:24;;;;;;;34.63;27.13;;;;;;;;;;4993797;28;20369;-82
2021/01/18 03:04:53;;;;;;;33.88;27.08;;;;;;;;;;4992626;28;20369;-82
2021/01/18 03:07:21;;;;;;;36.28;27.67;;;;;;;;;;4992266;28;20377;-81
2021/01/18 03:09:54;;;;;;;36.58;28.25;;;;;;;;;;4993934;28;20377;-82
2021/01/18 03:12:23;;;;;;;34.75;27.58;;;;;;;;;;4992366;28;20369;-81
2021/01/18 03:14:53;;;;;;;35.28;27.17;;;;;;;;;;4991468;28;20377;-81
2021/01/18 03:17:21;;;;;;;32.33;26.05;;;;;;;;;;4992281;28;20460;-81
2021/01/18 03:19:48;;;;;;;33.75;26.65;;;;;;;;;;4992359;28;20480;-81
2021/01/18 03:22:28;;;;;;;33.40;26.67;;;;;;;;;;4993672;28;20413;-81
2021/01/18 03:25:00;;;;;;;34.40;26.92;;;;;;;;;;4993657;28;20882;-81
2021/01/18 03:27:27;;;;;;;37.47;29.53;;;;;;;;;;4992300;28;20385;-82
2021/01/18 03:29:53;;;;;;;30.98;26.50;;;;;;;;;;4993367;28;20512;-81
2021/01/18 03:32:19;;;;;;;37.77;29.37;;;;;;;;;;4993403;28;20429;-81
2021/01/18 03:34:45;;;;;;;34.40;28.30;;;;;;;;;;4992221;28;20392;-82
2021/01/18 03:37:11;;;;;;;36.93;29.27;;;;;;;;;;4992138;28;20373;-81
2021/01/18 03:39:37;;;;;;;33.63;27.33;;;;;;;;;;4992901;28;20474;-82
2021/01/18 03:42:03;;;;;;;34.40;28.17;;;;;;;;;;4993149;28;20363;-81
2021/01/18 03:44:29;;;;;;;35.33;27.53;;;;;;;;;;4993062;28;20444;-81
2021/01/18 03:46:55;;;;;;;36.42;29.77;;;;;;;;;;4992013;28;20999;-82
2021/01/18 03:49:22;;;;;;;35.60;28.27;;;;;;;;;;4992885;28;20383;-81
2021/01/18 03:51:48;;;;;;;35.27;28.90;;;;;;;;;;4991780;28;20378;-81
2021/01/18 03:54:13;;;;;;;35.90;28.48;;;;;;;;;;4993174;28;20369;-82
2021/01/18 03:56:40;;;;;;;36.50;29.73;;;;;;;;;;4992994;28;20364;-81
2021/01/18 03:59:06;;;;;;;39.40;30.20;;;;;;;;;;4992909;28;20615;-81
2021/01/18 04:01:39;;;;;;;37.55;30.60;;;;;;;;;;4992787;28;20432;-82
2021/01/18 04:04:05;;;;;;;38.95;30.35;;;;;;;;;;4992887;28;20939;-82
2021/01/18 04:06:35;;;;;;;38.75;30.90;;;;;;;;;;4992866;28;20416;-81
2021/01/18 04:09:01;;;;;;;37.60;30.50;;;;;;;;;;4991018;28;20448;-82
2021/01/18 04:11:27;;;;;;;36.13;29.75;;;;;;;;;;4993082;28;21227;-81
2021/01/18 04:13:53;;;;;;;36.58;29.58;;;;;;;;;;4991635;28;20460;-82
2021/01/18 04:16:19;;;;;;;39.92;30.80;;;;;;;;;;4991759;28;20468;-82
2021/01/18 04:18:45;;;;;;;41.55;32.25;;;;;;;;;;4993033;28;20396;-82
2021/01/18 04:21:11;;;;;;;40.97;32.00;;;;;;;;;;4992226;28;20392;-82
2021/01/18 04:23:37;;;;;;;39.28;30.95;;;;;;;;;;4992196;28;20372;-82
2021/01/18 04:26:03;;;;;;;42.40;33.28;;;;;;;;;;4990688;28;20740;-82
2021/01/18 04:28:29;;;;;;;41.83;32.97;;;;;;;;;;4992884;28;20406;-82
2021/01/18 04:30:55;;;;;;;40.97;32.30;;;;;;;;;;4992815;28;20381;-81
2021/01/18 04:33:25;;;;;;;42.13;33.20;;;;;;;;;;4992210;28;20463;-82
2021/01/18 04:35:52;;;;;;;39.67;31.25;;;;;;;;;;4990898;28;20377;-82
2021/01/18 04:38:18;;;;;;;39.03;31.10;;;;;;;;;;4990876;28;20365;-82
2021/01/18 04:40:44;;;;;;;40.85;32.10;;;;;;;;;;4990337;28;20413;-82
2021/01/18 04:43:13;;;;;;;39.90;32.53;;;;;;;;;;4992340;28;20419;-81
2021/01/18 04:45:39;;;;;;;40.58;32.38;;;;;;;;;;4992128;28;20439;-81
2021/01/18 04:48:05;;;;;;;44.55;33.78;;;;;;;;;;4990812;28;20880;-81
2021/01/18 04:50:31;;;;;;;48.00;36.10;;;;;;;;;;4992110;28;20373;-82
2021/01/18 04:53:00;;;;;;;42.38;33.50;;;;;;;;;;4990584;28;20365;-82
2021/01/18 04:55:27;;;;;;;48.15;37.38;;;;;;;;;;4990910;28;20483;-82
2021/01/18 04:58:06;;;;;;;45.30;35.40;;;;;;;;;;4990614;28;20396;-82
2021/01/18 05:00:35;;;;;;;45.45;36.20;;;;;;;;;;4992055;28;20405;-82
2021/01/18 05:03:05;;;;;;;42.95;34.58;;;;;;;;;;4990738;28;20373;-82
2021/01/18 05:05:37;;;;;;;44.85;35.00;;;;;;;;;;4990308;28;20373;-81
2021/01/18 05:08:05;;;;;;;43.20;34.80;;;;;;;;;;4992203;28;20369;-81
2021/01/18 05:10:31;;;;;;;46.35;36.70;;;;;;;;;;4990308;28;20394;-81
2021/01/18 05:12:58;;;;;;;48.15;36.47;;;;;;;;;;4991392;28;20392;-81
2021/01/18 05:15:25;;;;;;;43.45;33.97;;;;;;;;;;4991594;28;20369;-82
2021/01/18 05:17:56;;;;;;;43.65;34.33;;;;;;;;;;4990428;28;20488;-82
2021/01/18 05:20:22;;;;;;;43.60;35.53;;;;;;;;;;4991531;28;20397;-81
2021/01/18 05:22:50;;;;;;;44.60;34.85;;;;;;;;;;4991950;28;20369;-82
2021/01/18 05:25:17;;;;;;;43.90;34.75;;;;;;;;;;4990962;28;20380;-82
2021/01/18 05:27:58;;;;;;;42.67;34.88;;;;;;;;;;4994509;28;20369;-82
2021/01/18 05:30:25;;;;;;;45.72;36.40;;;;;;;;;;4996952;28;20744;-82
2021/01/18 05:33:01;;;;;;;44.63;36.60;;;;;;;;;;4991688;28;20384;-82
2021/01/18 05:35:28;;;;;;;42.28;33.80;;;;;;;;;;4990433;28;20381;-82
2021/01/18 05:37:58;;;;;;;47.30;36.65;;;;;;;;;;4991810;28;20512;-84
2021/01/18 05:40:24;;;;;;;43.17;34.83;;;;;;;;;;4991551;28;20427;-81
2021/01/18 05:42:51;;;;;;;45.72;35.88;;;;;;;;;;4990431;28;20385;-82
2021/01/18 05:45:30;;;;;;;43.45;34.92;;;;;;;;;;5000920;28;20902;-82
2021/01/18 05:47:57;;;;;;;48.28;37.25;;;;;;;;;;4994918;28;20385;-80
2021/01/18 05:50:24;;;;;;;44.53;35.13;;;;;;;;;;4993023;28;20379;-87
2021/01/18 05:52:50;;;;;;;46.45;36.70;;;;;;;;;;5009736;28;20383;-80
2021/01/18 05:55:27;;;;;;;46.45;36.17;;;;;;;;;;5006250;28;20731;-83
2021/01/18 05:57:54;;;;;;;49.70;37.78;;;;;;;;;;5003408;28;20393;-84
2021/01/18 06:00:23;;;;;;;47.30;37.67;;;;;;;;;;5009449;28;20483;-84
2021/01/18 06:02:50;;;;;;;49.15;38.83;;;;;;;;;;5008010;28;20359;-83
2021/01/18 06:05:16;;;;;;;46.92;38.17;;;;;;;;;;4989849;28;20368;-82
2021/01/18 06:07:42;;;;;;;51.35;40.58;;;;;;;;;;4989562;28;20923;-84
2021/01/18 06:10:09;;;;;;;51.17;40.50;;;;;;;;;;4990943;28;20371;-87
2021/01/18 06:12:36;;;;;;;49.00;39.03;;;;;;;;;;4991050;28;20361;-84
2021/01/18 06:15:13;;;;;;;51.70;40.22;;;;;;;;;;5003400;28;20464;-83
2021/01/18 06:17:47;;;;;;;50.97;40.00;;;;;;;;;;5009288;28;20415;-84
2021/01/18 06:20:20;;;;;;;53.67;41.05;;;;;;;;;;5009828;28;20402;-82
2021/01/18 06:22:50;;;;;;;49.77;40.33;;;;;;;;;;5009230;28;20669;-82
2021/01/18 06:25:16;;;;;;;51.90;39.53;;;;;;;;;;4992808;28;20376;-81
2021/01/18 06:27:42;;;;;;;51.60;40.17;;;;;;;;;;5009379;28;20869;-82
2021/01/18 06:30:20;;;;;;;50.38;37.78;;;;;;;;;;5009704;28;20457;-82
2021/01/18 06:32:46;;;;;;;49.88;38.17;;;;;;;;;;5010533;28;20446;-82
2021/01/18 06:35:31;;;;;;;48.30;38.97;;;;;;;;;;5010848;28;20454;-83
2021/01/18 06:37:58;;;;;;;51.40;39.53;;;;;;;;;;5009281;28;20379;-82
2021/01/18 06:40:28;;;;;;;52.10;39.00;;;;;;;;;;5008922;28;20769;-82
2021/01/18 06:42:55;;;;;;;52.38;40.10;;;;;;;;;;5009049;28;20941;-82
2021/01/18 06:45:21;;;;;;;51.53;40.25;;;;;;;;;;5010284;28;20364;-83
2021/01/18 06:47:47;;;;;;;47.88;39.17;;;;;;;;;;5010542;28;20367;-82
2021/01/18 06:50:13;;;;;;;53.50;41.20;;;;;;;;;;5013083;28;20358;-82
2021/01/18 06:52:46;;;;;;;56.22;43.00;;;;;;;;;;5013712;28;20712;-83
2021/01/18 06:55:17;;;;;;;49.28;39.03;;;;;;;;;;5012335;28;20360;-82
2021/01/18 06:57:46;;;;;;;48.22;38.55;;;;;;;;;;5013861;28;20850;-82
2021/01/18 07:00:16;;;;;;;52.90;41.67;;;;;;;;;;5012197;28;20399;-82
2021/01/18 07:02:59;;;;;;;50.05;40.53;;;;;;;;;;5012372;28;20379;-82
2021/01/18 07:05:45;;;;;;;50.53;40.47;;;;;;;;;;5013599;28;20371;-82
2021/01/18 07:08:13;;;;;;;52.53;41.13;;;;;;;;;;5013656;28;20368;-82
2021/01/18 07:10:44;;;;;;;48.63;39.55;;;;;;;;;;5012173;28;20723;-82
2021/01/18 07:13:10;;;;;;;50.70;39.72;;;;;;;;;;5013683;28;20373;-82
2021/01/18 07:15:38;;;;;;;51.63;40.17;;;;;;;;;;5013618;28;20363;-82
2021/01/18 07:18:11;;;;;;;50.67;40.63;;;;;;;;;;5012075;28;20406;-83
2021/01/18 07:20:46;;;;;;;55.08;41.72;;;;;;;;;;5013019;28;20789;-82
2021/01/18 07:23:15;;;;;;;51.17;41.50;;;;;;;;;;4995962;28;20379;-82
2021/01/18 07:25:41;;;;;;;52.10;41.40;;;;;;;;;;5013414;28;20371;-82
2021/01/18 07:28:08;;;;;;;47.03;37.75;;;;;;;;;;5013898;28;20378;-85
2021/01/18 07:30:35;;;;;;;53.28;41.03;;;;;;;;;;5013003;28;20366;-82
2021/01/18 07:33:07;;;;;;;50.33;39.37;;;;;;;;;;5013030;28;20403;-82
2021/01/18 07:35:35;;;;;;;51.95;39.42;;;;;;;;;;5013247;28;20374;-85
2021/01/18 07:38:14;;;;;;;50.00;40.03;;;;;;;;;;5012234;28;20901;-88
2021/01/18 07:40:40;;;;;;;51.00;39.60;;;;;;;;;;5013242;28;20415;-85
2021/01/18 07:43:07;;;;;;;50.78;40.92;;;;;;;;;;5013072;28;20375;-87
2021/01/18 07:45:33;;;;;;;48.42;39.05;;;;;;;;;;5014092;28;20383;-86
2021/01/18 07:48:03;;;;;;;52.72;41.17;;;;;;;;;;5018094;28;20364;-89
2021/01/18 07:50:30;;;;;;;47.22;38.28;;;;;;;;;;5013006;28;20371;-85
2021/01/18 07:52:59;;;;;;;50.20;39.42;;;;;;;;;;5010301;28;20481;-85
2021/01/18 07:55:26;;;;;;;52.45;41.10;;;;;;;;;;4993864;28;20360;-83
2021/01/18 07:57:52;;;;;;;52.72;40.97;;;;;;;;;;5003065;28;20464;-86
2021/01/18 08:00:23;;;;;;;51.73;41.13;;;;;;;;;;5006642;28;20429;-83
2021/01/18 08:02:51;;;;;;;51.58;41.13;;;;;;;;;;4991662;28;20420;-85
2021/01/18 08:05:22;;;;;;;51.13;39.70;;;;;;;;;;5007909;28;20387;-85
2021/01/18 08:08:03;;;;;;;47.80;37.90;;;;;;;;;;5007700;28;20384;-82
2021/01/18 08:10:48;;;;;;;51.90;41.25;;;;;;;;;;4997667;28;20399;-81
2021/01/18 08:13:32;;;;;;;50.63;39.90;;;;;;;;;;4996595;28;20438;-81
2021/01/18 08:16:19;;;;;;;46.25;37.38;;;;;;;;;;5004551;28;20427;-83
2021/01/18 08:18:55;;;;;;;52.40;41.78;;;;;;;;;;4988943;28;20391;-83
2021/01/18 08:21:34;;;;;;;50.08;40.47;;;;;;;;;;4998300;28;20848;-84
2021/01/18 08:24:00;;;;;;;50.55;40.33;;;;;;;;;;5000359;28;20388;-84
2021/01/18 08:26:26;;;;;;;45.50;36.25;;;;;;;;;;5009865;28;20387;-83
2021/01/18 08:28:52;;;;;;;47.55;39.47;;;;;;;;;;5011432;28;20379;-82
2021/01/18 08:31:18;;;;;;;47.97;39.20;;;;;;;;;;5011231;28;20964;-84
2021/01/18 08:33:44;;;;;;;44.85;37.08;;;;;;;;;;5004606;28;20376;-83
2021/01/18 08:36:10;;;;;;;48.80;38.63;;;;;;;;;;5006223;28;20383;-82
2021/01/18 08:38:36;;;;;;;49.63;40.55;;;;;;;;;;4991788;28;20544;-80
2021/01/18 08:41:09;;;;;;;44.92;37.10;;;;;;;;;;5006681;28;20506;-82
2021/01/18 08:43:46;;;;;;;49.28;40.28;;;;;;;;;;4996195;28;20433;-81
2021/01/18 08:46:45;;;;;;;47.88;39.08;;;;;;;;;;5009148;28;20411;-84
2021/01/18 08:49:19;;;;;;;51.88;41.35;;;;;;;;;;4967173;28;20852;-84
2021/01/18 08:51:46;;;;;;;53.08;41.80;;;;;;;;;;5011371;28;20441;-82
2021/01/18 08:54:12;;;;;;;49.90;40.67;;;;;;;;;;5009532;28;20383;-82
2021/01/18 08:56:39;;;;;;;54.38;41.63;;;;;;;;;;5009510;28;20896;-84
2021/01/18 08:59:15;;;;;;;54.28;43.45;;;;;;;;;;5001173;28;20377;-83
2021/01/18 09:01:41;;;;;;;51.90;42.33;;;;;;;;;;4991172;28;20405;-81
2021/01/18 09:04:07;;;;;;;52.40;42.95;;;;;;;;;;5002746;28;20924;-85
2021/01/18 09:06:33;;;;;;;51.92;42.15;;;;;;;;;;4991279;28;20415;-82
2021/01/18 09:09:06;;;;;;;48.97;40.85;;;;;;;;;;4990387;28;20369;-85
2021/01/18 09:11:33;;;;;;;52.42;42.35;;;;;;;;;;4989959;28;20392;-82
2021/01/18 09:13:59;;;;;;;49.92;42.20;;;;;;;;;;4990566;28;20366;-80
2021/01/18 09:16:25;;;;;;;47.08;39.13;;;;;;;;;;4988685;28;20885;-82
2021/01/18 09:18:51;;;;;;;49.58;40.70;;;;;;;;;;4993459;28;20373;-83
2021/01/18 09:21:18;;;;;;;45.53;38.65;;;;;;;;;;4994867;28;20433;-82
2021/01/18 09:23:44;;;;;;;48.58;40.05;;;;;;;;;;5010309;28;20422;-83
2021/01/18 09:26:11;;;;;;;49.10;40.38;;;;;;;;;;4995205;28;21124;-79
2021/01/18 09:28:40;;;;;;;52.30;41.47;;;;;;;;;;4992905;28;20915;-85
2021/01/18 09:31:13;;;;;;;49.38;40.40;;;;;;;;;;4995082;28;20374;-82
2021/01/18 09:33:40;;;;;;;50.20;42.30;;;;;;;;;;5015193;28;20383;-85
2021/01/18 09:36:10;;;;;;;49.80;40.72;;;;;;;;;;5017263;28;20360;-84
2021/01/18 09:38:36;;;;;;;48.95;41.15;;;;;;;;;;5011990;28;20468;-82
2021/01/18 09:41:02;;;;;;;49.17;41.80;;;;;;;;;;5000604;28;20436;-83
2021/01/18 09:43:29;;;;;;;49.80;42.37;;;;;;;;;;4992556;28;20415;-85
2021/01/18 09:45:56;;;;;;;50.08;42.95;;;;;;;;;;5010525;28;20421;-84
2021/01/18 09:48:24;;;;;;;50.50;42.60;;;;;;;;;;5010333;28;20385;-85
2021/01/18 09:50:57;;;;;;;50.97;42.38;;;;;;;;;;5010056;28;20371;-83
2021/01/18 09:53:23;;;;;;;50.80;42.42;;;;;;;;;;5009862;28;20398;-88
2021/01/18 09:55:50;;;;;;;52.63;43.57;;;;;;;;;;5010575;28;20850;-85
2021/01/18 09:58:20;;;;;;;49.15;41.25;;;;;;;;;;5005008;28;20380;-87
2021/01/18 10:00:48;;;;;;;48.63;40.65;;;;;;;;;;4990864;28;20463;-84
2021/01/18 10:03:27;;;;;;;52.00;42.80;;;;;;;;;;4990320;28;20372;-85
2021/01/18 10:06:02;;;;;;;52.55;42.85;;;;;;;;;;4986971;28;20397;-87
2021/01/18 10:08:29;;;;;;;50.72;41.70;;;;;;;;;;4990806;28;20760;-85
2021/01/18 10:10:55;;;;;;;49.67;40.63;;;;;;;;;;5001623;28;20372;-85
2021/01/18 10:13:25;;;;;;;50.88;41.92;;;;;;;;;;4990736;28;20380;-85
2021/01/18 10:15:52;;;;;;;50.90;42.70;;;;;;;;;;5005909;28;20781;-86
2021/01/18 10:18:31;;;;;;;52.65;43.35;;;;;;;;;;5002384;28;20399;-84
2021/01/18 10:20:57;;;;;;;54.90;45.07;;;;;;;;;;4990783;28;20505;-86
2021/01/18 10:23:24;;;;;;;56.40;45.10;;;;;;;;;;4989368;28;20380;-84
2021/01/18 10:25:50;;;;;;;54.05;45.22;;;;;;;;;;4994578;28;20373;-84
2021/01/18 10:28:17;;;;;;;56.53;46.00;;;;;;;;;;5001532;28;20463;-87
2021/01/18 10:30:43;;;;;;;62.45;48.20;;;;;;;;;;5014084;28;20367;-85
2021/01/18 10:33:14;;;;;;;61.50;48.70;;;;;;;;;;5014637;28;20378;-86
2021/01/18 10:35:40;;;;;;;58.72;47.63;;;;;;;;;;5015004;28;20371;-84
2021/01/18 10:38:13;;;;;;;61.60;49.33;;;;;;;;;;5014721;28;20401;-83
2021/01/18 10:40:39;;;;;;;62.60;49.60;;;;;;;;;;5013129;28;20402;-81
2021/01/18 10:43:05;;;;;;;58.78;47.53;;;;;;;;;;5014139;28;20363;-86
2021/01/18 10:45:31;;;;;;;54.65;46.40;;;;;;;;;;5013437;28;20403;-82
2021/01/18 10:48:00;;;;;;;58.22;47.00;;;;;;;;;;5013761;28;20456;-86
2021/01/18 10:50:27;;;;;;;63.40;49.70;;;;;;;;;;5007933;28;20436;-83
2021/01/18 10:53:00;;;;;;;66.18;50.10;;;;;;;;;;5014281;28;20363;-89
2021/01/18 10:55:26;;;;;;;56.88;46.58;;;;;;;;;;4999052;28;20372;-82
2021/01/18 10:57:53;;;;;;;56.85;47.53;;;;;;;;;;5009817;28;20372;-84
2021/01/18 11:00:20;;;;;;;65.78;51.25;;;;;;;;;;5002241;28;20497;-82
2021/01/18 11:02:55;;;;;;;60.85;49.20;;;;;;;;;;4994307;28;20705;-85
2021/01/18 11:05:32;;;;;;;62.92;50.28;;;;;;;;;;4992842;28;20665;-83
2021/01/18 11:07:59;;;;;;;66.68;51.15;;;;;;;;;;5007029;28;20382;-83
2021/01/18 11:10:26;;;;;;;66.60;50.70;;;;;;;;;;5014088;28;21003;-84
2021/01/18 11:12:56;;;;;;;65.00;51.87;;;;;;;;;;5011947;28;20375;-83
2021/01/18 11:15:28;;;;;;;67.82;49.70;;;;;;;;;;5013926;28;20363;-86
2021/01/18 11:17:54;;;;;;;63.35;47.85;;;;;;;;;;5013111;28;20463;-81
2021/01/18 11:20:24;;;;;;;68.45;50.80;;;;;;;;;;5015071;28;20494;-86
2021/01/18 11:22:50;;;;;;;63.63;48.42;;;;;;;;;;5002596;28;20383;-84
2021/01/18 11:25:16;;;;;;;65.97;49.75;;;;;;;;;;4994515;28;20723;-81
2021/01/18 11:27:42;;;;;;;67.28;49.55;;;;;;;;;;5004299;28;20809;-87
2021/01/18 11:30:09;;;;;;;64.17;48.27;;;;;;;;;;5011102;28;20466;-85
2021/01/18 11:32:34;;;;;;;68.85;50.05;;;;;;;;;;5012118;28;20789;-82
2021/01/18 11:35:00;;;;;;;62.40;45.97;;;;;;;;;;5006838;28;20377;-81
2021/01/18 11:37:26;;;;;;;63.85;47.47;;;;;;;;;;4995334;28;20380;-82
2021/01/18 11:39:52;;;;;;;67.77;48.97;;;;;;;;;;5001061;28;20470;-85
2021/01/18 11:42:19;;;;;;;67.68;49.10;;;;;;;;;;5010018;28;20863;-80
2021/01/18 11:44:45;;;;;;;66.47;48.40;;;;;;;;;;4997901;28;20862;-80
2021/01/18 11:47:11;;;;;;;68.75;49.58;;;;;;;;;;5013472;28;20450;-82
2021/01/18 11:49:37;;;;;;;72.80;51.22;;;;;;;;;;4997170;28;20376;-81
2021/01/18 11:52:05;;;;;;;71.10;51.90;;;;;;;;;;5013137;28;20371;-81
2021/01/18 11:54:31;;;;;;;66.78;48.83;;;;;;;;;;4995676;28;20407;-86
2021/01/18 11:56:57;;;;;;;76.65;51.70;;;;;;;;;;4993884;28;20434;-83
2021/01/18 11:59:23;;;;;;;76.22;52.65;;;;;;;;;;4999638;28;20379;-85
2021/01/18 12:01:49;;;;;;;73.57;52.03;;;;;;;;;;5011996;28;20403;-82
2021/01/18 12:04:16;;;;;;;75.80;53.63;;;;;;;;;;5001506;28;20392;-82
2021/01/18 12:06:42;;;;;;;76.17;54.03;;;;;;;;;;5010541;28;20458;-83
2021/01/18 12:09:09;;;;;;;75.60;53.72;;;;;;;;;;5010935;28;20454;-83
2021/01/18 12:11:41;;;;;;;87.40;58.50;;;;;;;;;;5011437;28;20442;-82
2021/01/18 12:14:08;;;;;;;76.32;53.95;;;;;;;;;;5011564;28;20378;-82
2021/01/18 12:16:34;;;;;;;81.72;55.80;;;;;;;;;;5011818;28;20360;-85
2021/01/18 12:19:01;;;;;;;75.65;52.05;;;;;;;;;;5009752;28;20482;-84
2021/01/18 12:21:27;;;;;;;76.20;52.77;;;;;;;;;;5011971;28;20844;-83
2021/01/18 12:23:53;;;;;;;82.55;55.35;;;;;;;;;;5010420;28;20533;-84
2021/01/18 12:26:19;;;;;;;76.72;52.47;;;;;;;;;;5008533;28;20462;-85
2021/01/18 12:28:46;;;;;;;72.88;52.78;;;;;;;;;;4997235;28;20369;-84
2021/01/18 12:31:13;;;;;;;71.32;51.28;;;;;;;;;;5006309;28;20390;-83
2021/01/18 12:33:39;;;;;;;80.50;55.38;;;;;;;;;;4992329;28;20373;-84
2021/01/18 12:36:05;;;;;;;81.40;54.78;;;;;;;;;;4991900;28;20358;-82
2021/01/18 12:38:31;;;;;;;77.45;54.75;;;;;;;;;;4991939;28;20864;-85
2021/01/18 12:40:57;;;;;;;76.80;52.42;;;;;;;;;;4991197;28;20435;-84
2021/01/18 12:43:23;;;;;;;73.40;50.73;;;;;;;;;;4990403;28;20778;-82
2021/01/18 12:45:49;;;;;;;71.22;49.97;;;;;;;;;;4991558;28;20711;-84
2021/01/18 12:48:15;;;;;;;73.68;51.05;;;;;;;;;;4991711;28;20905;-84
2021/01/18 12:50:43;;;;;;;70.10;48.17;;;;;;;;;;4991367;28;20373;-83
2021/01/18 12:53:09;;;;;;;68.18;48.25;;;;;;;;;;4991192;28;20369;-83
2021/01/18 12:55:36;;;;;;;68.30;49.50;;;;;;;;;;4991731;28;20357;-81
2021/01/18 12:58:02;;;;;;;72.03;48.20;;;;;;;;;;4991883;28;20361;-83
2021/01/18 13:00:28;;;;;;;71.63;48.88;;;;;;;;;;4990688;28;20752;-83
2021/01/18 13:02:54;;;;;;;67.40;48.13;;;;;;;;;;4991553;28;20874;-84
2021/01/18 13:05:20;;;;;;;66.45;46.28;;;;;;;;;;5001540;28;20367;-81
2021/01/18 13:07:49;;;;;;;76.18;50.10;;;;;;;;;;4999768;28;20408;-84
2021/01/18 13:10:16;;;;;;;78.30;51.10;;;;;;;;;;4998577;28;20440;-82
2021/01/18 13:12:42;;;;;;;72.70;48.85;;;;;;;;;;5003676;28;20363;-83
2021/01/18 13:15:09;;;;;;;71.88;46.85;;;;;;;;;;5000493;28;20888;-84
2021/01/18 13:17:35;;;;;;;72.07;47.17;;;;;;;;;;4993878;28;20369;-82
2021/01/18 13:20:04;;;;;;;72.18;47.45;;;;;;;;;;4997629;28;20457;-85
2021/01/18 13:22:30;;;;;;;69.75;45.28;;;;;;;;;;5009468;28;20367;-86
2021/01/18 13:24:56;;;;;;;76.20;47.88;;;;;;;;;;5004236;28;20413;-83
2021/01/18 13:27:22;;;;;;;65.70;44.92;;;;;;;;;;4994511;28;20856;-83
2021/01/18 13:29:48;;;;;;;73.53;47.65;;;;;;;;;;4998438;28;20371;-86
2021/01/18 13:32:15;;;;;;;67.00;46.10;;;;;;;;;;5008563;28;20363;-85
2021/01/18 13:34:42;;;;;;;81.27;49.17;;;;;;;;;;4998617;28;20377;-85
2021/01/18 13:37:08;;;;;;;68.57;45.45;;;;;;;;;;4993071;28;20924;-87
2021/01/18 13:39:35;;;;;;;68.78;45.97;;;;;;;;;;5005184;28;20375;-85
2021/01/18 13:42:01;;;;;;;70.70;45.10;;;;;;;;;;5012633;28;20529;-87
2021/01/18 13:44:27;;;;;;;76.40;47.53;;;;;;;;;;5004731;28;20367;-84
2021/01/18 13:46:53;;;;;;;64.45;42.95;;;;;;;;;;5002532;28;20392;-83
2021/01/18 13:49:19;;;;;;;73.60;45.23;;;;;;;;;;5003054;28;20373;-84
2021/01/18 13:51:45;;;;;;;70.28;44.70;;;;;;;;;;5009484;28;20414;-82
2021/01/18 13:54:11;;;;;;;70.35;45.25;;;;;;;;;;5004523;28;20424;-84
2021/01/18 13:56:37;;;;;;;66.53;42.88;;;;;;;;;;5000181;28;20373;-84
2021/01/18 13:59:03;;;;;;;67.65;43.85;;;;;;;;;;4998376;28;20725;-86
2021/01/18 14:01:30;;;;;;;69.45;45.40;;;;;;;;;;4997236;28;20423;-81
2021/01/18 14:03:57;;;;;;;62.63;42.28;;;;;;;;;;4995040;28;20373;-81
2021/01/18 14:06:40;;;;;;;59.88;40.20;;;;;;;;;;4999535;28;20430;-82
2021/01/18 14:09:08;;;;;;;56.78;39.80;;;;;;;;;;5001226;28;20377;-81
2021/01/18 14:11:34;;;;;;;65.97;44.13;;;;;;;;;;5000971;28;20744;-80
2021/01/18 14:14:00;;;;;;;62.80;43.25;;;;;;;;;;5003486;28;20428;-84
2021/01/18 14:16:27;;;;;;;62.25;43.97;;;;;;;;;;4999911;28;20365;-81
2021/01/18 14:18:53;;;;;;;66.05;44.13;;;;;;;;;;5001708;28;20374;-85
2021/01/18 14:21:19;;;;;;;67.68;46.97;;;;;;;;;;5003309;28;20749;-85
2021/01/18 14:23:45;;;;;;;70.70;48.50;;;;;;;;;;5009774;28;20901;-83